createdAt,value
2023-05-12T00:00:16.619Z,178.68
2023-05-12T00:02:46.302Z,198.10
2023-05-12T00:05:13.827Z,242.48
2023-05-12T00:07:41.248Z,238.65
2023-05-12T00:10:09.014Z,253.55
2023-05-12T00:12:36.552Z,236.77
2023-05-12T00:15:04.270Z,260.75
2023-05-12T00:17:32.750Z,252.55
2023-05-12T00:20:00.280Z,247.85
2023-05-12T00:22:27.907Z,234.35
2023-05-12T00:24:55.393Z,209.57
2023-05-12T00:27:23.032Z,224.38
2023-05-12T00:29:50.528Z,226.05
2023-05-12T00:32:18.085Z,254.57
2023-05-12T00:34:45.525Z,266.15
2023-05-12T00:37:13.202Z,283.52
2023-05-12T00:39:40.614Z,286.60
2023-05-12T00:42:08.438Z,277.75
2023-05-12T00:44:36.965Z,274.80
2023-05-12T00:47:05.357Z,237.73
2023-05-12T00:49:33.186Z,262.27
2023-05-12T00:52:02.521Z,259.10
2023-05-12T00:54:31.381Z,262.27
2023-05-12T00:56:59.364Z,243.90
2023-05-12T00:59:27.469Z,253.02
2023-05-12T01:01:54.998Z,246.13
2023-05-12T01:04:23.597Z,228.57
2023-05-12T01:07:07.049Z,230.90
2023-05-12T01:09:34.624Z,231.07
2023-05-12T01:12:02.864Z,231.02
2023-05-12T01:14:32.465Z,242.13
2023-05-12T01:17:03.826Z,197.57
2023-05-12T01:19:46.220Z,227.40
2023-05-12T01:22:15.529Z,225.50
2023-05-12T01:25:08.738Z,203.45
2023-05-12T01:27:40.136Z,233.75
2023-05-12T01:30:09.760Z,200.35
2023-05-12T01:32:39.065Z,203.07
2023-05-12T01:35:07.512Z,202.77
2023-05-12T01:37:37.303Z,249.20
2023-05-12T01:40:06.613Z,215.27
2023-05-12T01:42:34.240Z,205.75
2023-05-12T01:45:02.072Z,233.00
2023-05-12T01:47:30.580Z,220.30
2023-05-12T01:50:09.447Z,198.23
2023-05-12T01:52:42.546Z,225.40
2023-05-12T01:55:13.146Z,224.43
2023-05-12T01:58:00.900Z,221.65
2023-05-12T02:00:28.824Z,219.68
2023-05-12T02:02:58.703Z,227.75
2023-05-12T02:05:26.660Z,229.73
2023-05-12T02:07:54.625Z,220.15
2023-05-12T02:10:22.737Z,226.73
2023-05-12T02:12:50.488Z,208.82
2023-05-12T02:15:18.316Z,228.88
2023-05-12T02:17:47.261Z,229.82
2023-05-12T02:20:17.113Z,211.25
2023-05-12T02:22:44.753Z,223.43
2023-05-12T02:25:12.270Z,209.15
2023-05-12T02:27:40.315Z,194.02
2023-05-12T02:30:09.562Z,215.68
2023-05-12T02:32:37.300Z,192.20
2023-05-12T02:35:07.813Z,200.40
2023-05-12T02:37:37.128Z,192.73
2023-05-12T02:40:06.321Z,189.18
2023-05-12T02:42:36.510Z,177.13
2023-05-12T02:45:05.837Z,172.60
2023-05-12T02:47:34.809Z,177.88
2023-05-12T02:50:02.749Z,157.70
2023-05-12T02:52:32.187Z,151.32
2023-05-12T02:54:59.884Z,142.07
2023-05-12T02:57:33.168Z,129.30
2023-05-12T03:00:07.541Z,122.60
2023-05-12T03:02:39.439Z,120.68
2023-05-12T03:05:09.490Z,94.60
2023-05-12T03:07:37.703Z,87.85
2023-05-12T03:10:05.788Z,97.85
2023-05-12T03:12:33.254Z,90.57
2023-05-12T03:15:00.866Z,87.53
2023-05-12T03:17:29.620Z,74.53
2023-05-12T03:19:57.210Z,82.90
2023-05-12T03:22:24.778Z,70.85
2023-05-12T03:24:52.440Z,69.32
2023-05-12T03:27:21.266Z,60.42
2023-05-12T03:29:49.036Z,58.42
2023-05-12T03:32:17.061Z,61.20
2023-05-12T03:34:44.654Z,62.35
2023-05-12T03:37:12.870Z,48.97
2023-05-12T03:39:40.462Z,52.85
2023-05-12T03:42:08.284Z,50.05
2023-05-12T03:44:35.852Z,47.20
2023-05-12T03:47:03.363Z,48.58
2023-05-12T03:49:30.979Z,49.03
2023-05-12T03:51:58.819Z,42.75
2023-05-12T03:54:26.318Z,41.72
2023-05-12T03:56:54.302Z,42.50
2023-05-12T03:59:22.798Z,37.17
2023-05-12T04:01:53.728Z,36.92
2023-05-12T04:04:21.217Z,37.40
2023-05-12T04:06:48.794Z,37.17
2023-05-12T04:09:16.911Z,34.30
2023-05-12T04:11:44.400Z,32.28
2023-05-12T04:14:11.791Z,29.63
2023-05-12T04:16:40.995Z,31.88
2023-05-12T04:19:08.448Z,23.27
2023-05-12T04:21:36.352Z,20.40
2023-05-12T04:24:04.110Z,20.27
2023-05-12T04:26:34.362Z,22.45
2023-05-12T04:29:01.860Z,18.25
2023-05-12T04:31:29.435Z,20.42
2023-05-12T04:33:58.179Z,21.83
2023-05-12T04:36:26.357Z,22.65
2023-05-12T04:38:56.063Z,19.75
2023-05-12T04:41:23.560Z,21.60
2023-05-12T04:46:22.400Z,21.90
2023-05-12T04:48:50.021Z,19.65
2023-05-12T04:51:18.820Z,22.33
2023-05-12T04:53:46.275Z,22.98
2023-05-12T04:56:14.939Z,23.30
2023-05-12T04:58:43.134Z,19.05
2023-05-12T05:01:12.583Z,22.67
2023-05-12T05:03:41.157Z,20.70
2023-05-12T05:06:08.888Z,19.67
2023-05-12T05:08:36.287Z,19.52
2023-05-12T05:11:04.715Z,19.00
2023-05-12T05:13:32.699Z,18.15
2023-05-12T05:16:00.320Z,18.67
2023-05-12T05:18:29.497Z,16.33
2023-05-12T05:20:59.092Z,19.20
2023-05-12T05:23:27.470Z,14.75
2023-05-12T05:25:55.612Z,14.27
2023-05-12T05:28:23.863Z,13.95
2023-05-12T05:30:51.441Z,14.07
2023-05-12T05:33:19.010Z,14.82
2023-05-12T05:35:48.251Z,16.17
2023-05-12T05:38:15.871Z,16.90
2023-05-12T05:40:53.066Z,15.10
2023-05-12T05:43:22.203Z,15.13
2023-05-12T05:45:50.283Z,16.05
2023-05-12T05:48:19.892Z,15.55
2023-05-12T05:50:47.998Z,17.23
2023-05-12T05:53:15.651Z,14.52
2023-05-12T05:55:43.586Z,14.75
2023-05-12T05:58:11.957Z,17.00
2023-05-12T06:00:39.620Z,13.48
2023-05-12T06:03:07.722Z,13.38
2023-05-12T06:05:35.733Z,14.73
2023-05-12T06:08:03.372Z,12.38
2023-05-12T06:10:32.507Z,12.73
2023-05-12T06:13:00.004Z,13.38
2023-05-12T06:15:27.476Z,14.07
2023-05-12T06:17:55.127Z,14.07
2023-05-12T06:20:23.634Z,12.15
2023-05-12T06:22:51.224Z,12.27
2023-05-12T06:25:18.974Z,12.32
2023-05-12T06:27:46.687Z,12.07
2023-05-12T06:30:16.169Z,13.07
2023-05-12T06:32:44.028Z,14.80
2023-05-12T06:35:11.982Z,16.00
2023-05-12T06:37:39.532Z,12.73
2023-05-12T06:40:07.792Z,13.38
2023-05-12T06:42:35.279Z,12.18
2023-05-12T06:45:10.091Z,13.25
2023-05-12T06:47:37.555Z,11.05
2023-05-12T06:50:05.469Z,11.98
2023-05-12T06:52:33.042Z,10.77
2023-05-12T06:55:00.457Z,14.35
2023-05-12T06:57:28.094Z,15.57
2023-05-12T06:59:55.584Z,12.63
2023-05-12T07:02:23.035Z,10.48
2023-05-12T07:04:50.674Z,10.27
2023-05-12T07:07:18.115Z,10.32
2023-05-12T07:09:46.316Z,10.98
2023-05-12T07:12:13.865Z,11.40
2023-05-12T07:14:41.548Z,12.18
2023-05-12T07:17:09.090Z,10.13
2023-05-12T07:19:36.875Z,10.20
2023-05-12T07:22:04.817Z,10.10
2023-05-12T07:24:32.415Z,8.13
2023-05-12T07:26:59.861Z,8.85
2023-05-12T07:29:27.367Z,11.00
2023-05-12T07:31:54.929Z,8.13
2023-05-12T07:34:22.504Z,7.03
2023-05-12T07:36:49.928Z,8.60
2023-05-12T07:39:19.726Z,10.63
2023-05-12T07:41:47.152Z,14.55
2023-05-12T07:44:14.643Z,12.00
2023-05-12T07:46:42.301Z,12.65
2023-05-12T07:49:09.817Z,10.63
2023-05-12T07:51:37.705Z,14.13
2023-05-12T07:54:05.360Z,10.05
2023-05-12T07:56:33.239Z,11.27
2023-05-12T07:59:00.617Z,12.13
2023-05-12T08:01:28.141Z,11.23
2023-05-12T08:03:55.861Z,11.52
2023-05-12T08:06:24.931Z,11.65
2023-05-12T08:08:52.796Z,16.13
2023-05-12T08:11:20.335Z,13.80
2023-05-12T08:13:47.789Z,13.57
2023-05-12T08:16:15.249Z,14.82
2023-05-12T08:18:42.784Z,14.20
2023-05-12T08:21:10.524Z,12.73
2023-05-12T08:23:38.211Z,15.05
2023-05-12T08:26:06.149Z,15.00
2023-05-12T08:28:33.661Z,15.95
2023-05-12T08:31:03.366Z,17.48
2023-05-12T08:33:32.259Z,14.93
2023-05-12T08:35:59.861Z,20.10
2023-05-12T08:38:27.424Z,19.38
2023-05-12T08:41:16.533Z,26.08
2023-05-12T08:43:51.192Z,17.95
2023-05-12T08:46:19.204Z,17.77
2023-05-12T08:48:49.298Z,15.32
2023-05-12T08:51:19.636Z,16.33
2023-05-12T08:53:49.452Z,18.85
2023-05-12T08:58:50.486Z,19.23
2023-05-12T09:01:18.598Z,24.73
2023-05-12T09:03:46.961Z,21.73
2023-05-12T09:06:14.998Z,22.67
2023-05-12T09:08:42.728Z,23.77
2023-05-12T09:11:13.720Z,25.98
2023-05-12T09:14:08.959Z,26.52
2023-05-12T09:16:43.112Z,26.80
2023-05-12T09:19:12.836Z,29.17
2023-05-12T09:21:42.273Z,25.85
2023-05-12T09:24:09.782Z,22.08
2023-05-12T09:26:51.816Z,25.55
2023-05-12T09:29:30.800Z,25.45
2023-05-12T09:32:03.508Z,25.35
2023-05-12T09:34:38.811Z,28.35
2023-05-12T09:37:08.096Z,33.78
2023-05-12T09:39:37.022Z,27.52
2023-05-12T09:42:05.379Z,29.33
2023-05-12T09:44:33.607Z,28.35
2023-05-12T09:47:08.255Z,27.08
2023-05-12T09:49:36.062Z,26.80
2023-05-12T09:52:05.324Z,22.70
2023-05-12T09:54:34.127Z,24.83
2023-05-12T09:57:05.276Z,25.17
2023-05-12T09:59:35.168Z,23.88
2023-05-12T10:02:06.729Z,24.23
2023-05-12T10:04:49.786Z,25.90
2023-05-12T10:07:22.848Z,28.33
2023-05-12T10:09:50.695Z,27.40
2023-05-12T10:12:18.399Z,24.88
2023-05-12T10:14:46.785Z,24.23
2023-05-12T10:17:15.501Z,28.08
2023-05-12T10:19:44.553Z,22.67
2023-05-12T10:22:12.177Z,24.55
2023-05-12T10:24:41.354Z,27.52
2023-05-12T10:27:09.066Z,29.20
2023-05-12T10:29:38.664Z,25.83
2023-05-12T10:32:07.324Z,28.63
2023-05-12T10:34:37.109Z,29.30
2023-05-12T10:37:11.411Z,26.15
2023-05-12T10:39:48.274Z,31.70
2023-05-12T10:42:26.657Z,28.52
2023-05-12T10:44:55.339Z,28.42
2023-05-12T10:47:29.763Z,29.20
2023-05-12T10:49:59.022Z,29.90
2023-05-12T10:52:26.493Z,26.73
2023-05-12T10:55:01.489Z,24.58
2023-05-12T10:57:32.335Z,25.52
2023-05-12T11:00:01.963Z,27.77
2023-05-12T11:02:34.660Z,28.08
2023-05-12T11:05:10.772Z,25.90
2023-05-12T11:07:39.879Z,25.27
2023-05-12T11:10:08.610Z,26.15
2023-05-12T11:12:37.615Z,25.60
2023-05-12T11:15:07.353Z,26.40
2023-05-12T11:17:40.421Z,26.67
2023-05-12T11:20:10.303Z,25.35
2023-05-12T11:22:37.859Z,27.85
2023-05-12T11:25:12.720Z,24.75
2023-05-12T11:27:46.041Z,31.20
2023-05-12T11:30:13.952Z,27.42
2023-05-12T11:32:41.840Z,30.67
2023-05-12T11:35:10.117Z,27.67
2023-05-12T11:37:42.156Z,23.88
2023-05-12T11:40:27.622Z,32.50
2023-05-12T11:42:56.437Z,29.95
2023-05-12T11:45:29.071Z,34.50
2023-05-12T11:48:09.128Z,38.75
2023-05-12T11:50:44.848Z,39.05
2023-05-12T11:53:15.298Z,36.22
2023-05-12T11:55:51.441Z,38.60
2023-05-12T11:58:22.083Z,32.20
2023-05-12T12:00:50.956Z,39.17
2023-05-12T12:03:19.047Z,40.97
2023-05-12T12:06:01.570Z,43.88
2023-05-12T12:08:29.355Z,42.00
2023-05-12T12:10:57.061Z,42.78
2023-05-12T12:13:26.393Z,43.83
2023-05-12T12:15:53.962Z,39.72
2023-05-12T12:18:21.740Z,36.53
2023-05-12T12:20:49.379Z,34.92
2023-05-12T12:23:16.943Z,33.85
2023-05-12T12:25:44.596Z,33.53
2023-05-12T12:28:12.494Z,31.15
2023-05-12T12:30:40.017Z,32.35
2023-05-12T12:33:07.599Z,27.83
2023-05-12T12:35:35.211Z,29.63
2023-05-12T12:38:02.787Z,29.52
2023-05-12T12:40:31.259Z,27.15
2023-05-12T12:42:58.719Z,29.35
2023-05-12T12:45:26.708Z,25.73
2023-05-12T12:47:55.234Z,26.30
2023-05-12T12:50:24.995Z,23.27
2023-05-12T12:52:53.305Z,20.80
2023-05-12T12:55:21.129Z,22.48
2023-05-12T12:57:48.850Z,21.05
2023-05-12T13:00:17.628Z,22.73
2023-05-12T13:02:45.627Z,23.75
2023-05-12T13:05:13.061Z,25.23
2023-05-12T13:07:40.744Z,22.90
2023-05-12T13:10:09.840Z,24.38
2023-05-12T13:12:37.454Z,19.90
2023-05-12T13:15:06.047Z,23.27
2023-05-12T13:17:34.677Z,23.95
2023-05-12T13:20:02.852Z,26.63
2023-05-12T13:22:31.512Z,23.10
2023-05-12T13:24:58.982Z,20.58
2023-05-12T13:27:26.492Z,23.63
2023-05-12T13:29:54.080Z,25.35
2023-05-12T13:32:21.545Z,26.88
2023-05-12T13:34:49.220Z,26.75
2023-05-12T13:37:16.856Z,23.67
2023-05-12T13:39:44.342Z,24.55
2023-05-12T13:42:11.835Z,23.40
2023-05-12T13:44:39.252Z,25.17
2023-05-12T13:47:09.758Z,25.60
2023-05-12T13:49:37.633Z,25.35
2023-05-12T13:52:05.391Z,25.05
2023-05-12T13:54:32.859Z,27.63
2023-05-12T13:57:01.146Z,30.42
2023-05-12T13:59:28.658Z,30.92
2023-05-12T14:01:56.190Z,37.63
2023-05-12T14:04:23.870Z,36.58
2023-05-12T14:06:54.267Z,36.03
2023-05-12T14:09:22.053Z,37.60
2023-05-12T14:11:49.513Z,37.35
2023-05-12T14:14:17.059Z,41.55
2023-05-12T14:16:44.647Z,40.70
2023-05-12T14:19:12.524Z,41.72
2023-05-12T14:21:41.511Z,39.85
2023-05-12T14:24:09.365Z,41.13
2023-05-12T14:26:36.966Z,36.90
2023-05-12T14:29:05.582Z,38.95
2023-05-12T14:31:34.405Z,40.58
2023-05-12T14:34:03.039Z,39.60
2023-05-12T14:36:30.513Z,36.67
2023-05-12T14:38:58.068Z,35.15
2023-05-12T14:41:26.109Z,35.45
2023-05-12T14:43:53.643Z,31.95
2023-05-12T14:46:21.365Z,37.63
2023-05-12T14:48:49.122Z,34.50
2023-05-12T14:51:16.611Z,34.33
2023-05-12T14:53:44.193Z,34.17
2023-05-12T14:56:11.615Z,35.40
2023-05-12T14:58:39.252Z,31.90
2023-05-12T15:01:09.281Z,32.17
2023-05-12T15:03:37.266Z,31.95
2023-05-12T15:06:08.063Z,31.90
2023-05-12T15:08:36.101Z,30.85
2023-05-12T15:11:03.723Z,29.75
2023-05-12T15:13:31.875Z,29.00
2023-05-12T15:15:59.390Z,32.42
2023-05-12T15:18:27.050Z,30.90
2023-05-12T15:20:54.647Z,32.95
2023-05-12T15:23:22.396Z,31.83
2023-05-12T15:25:49.901Z,30.92
2023-05-12T15:28:17.700Z,31.02
2023-05-12T15:30:45.807Z,30.75
2023-05-12T15:33:13.677Z,29.88
2023-05-12T15:35:41.996Z,29.48
2023-05-12T15:38:09.528Z,31.13
2023-05-12T15:40:37.517Z,28.05
2023-05-12T15:43:05.459Z,26.08
2023-05-12T15:45:33.022Z,27.83
2023-05-12T15:48:00.556Z,24.75
2023-05-12T15:50:28.111Z,27.05
2023-05-12T15:52:56.086Z,24.88
2023-05-12T15:55:24.059Z,26.48
2023-05-12T15:57:53.814Z,29.23
2023-05-12T16:00:22.931Z,29.67
2023-05-12T16:02:50.679Z,27.85
2023-05-12T16:05:18.625Z,27.40
2023-05-12T16:07:48.243Z,28.73
2023-05-12T16:10:16.289Z,23.42
2023-05-12T16:12:46.203Z,26.73
2023-05-12T16:15:14.143Z,26.52
2023-05-12T16:17:41.745Z,26.35
2023-05-12T16:20:10.547Z,24.08
2023-05-12T16:22:38.126Z,26.65
2023-05-12T16:25:05.971Z,24.33
2023-05-12T16:27:35.836Z,25.92
2023-05-12T16:30:04.254Z,25.90
2023-05-12T16:32:32.461Z,26.77
2023-05-12T16:35:01.039Z,24.40
2023-05-12T16:37:28.937Z,27.60
2023-05-12T16:39:56.443Z,26.33
2023-05-12T16:42:24.202Z,26.58
2023-05-12T16:44:55.068Z,26.58
2023-05-12T16:47:23.067Z,26.13
2023-05-12T16:49:53.894Z,28.27
2023-05-12T16:52:21.723Z,26.17
2023-05-12T16:54:49.248Z,24.10
2023-05-12T16:57:18.591Z,26.70
2023-05-12T16:59:46.286Z,25.73
2023-05-12T17:02:13.835Z,32.55
2023-05-12T17:04:41.832Z,26.17
2023-05-12T17:07:09.986Z,30.27
2023-05-12T17:09:37.474Z,26.48
2023-05-12T17:12:06.966Z,28.42
2023-05-12T17:14:37.510Z,28.75
2023-05-12T17:17:05.162Z,27.23
2023-05-12T17:19:33.395Z,30.52
2023-05-12T17:22:01.575Z,34.13
2023-05-12T17:24:29.133Z,38.30
2023-05-12T17:26:56.569Z,32.92
2023-05-12T17:29:24.106Z,28.98
2023-05-12T17:31:51.693Z,25.60
2023-05-12T17:34:19.360Z,30.67
2023-05-12T17:36:46.821Z,31.05
2023-05-12T17:39:16.256Z,30.60
2023-05-12T17:41:44.609Z,31.63
2023-05-12T17:44:12.093Z,29.15
2023-05-12T17:46:39.633Z,30.85
2023-05-12T17:49:07.351Z,29.42
2023-05-12T17:51:35.704Z,31.67
2023-05-12T17:54:04.297Z,34.67
2023-05-12T17:56:31.824Z,32.25
2023-05-12T17:58:59.303Z,31.67
2023-05-12T18:01:26.910Z,29.05
2023-05-12T18:03:54.810Z,33.08
2023-05-12T18:06:22.422Z,29.35
2023-05-12T18:08:50.030Z,33.63
2023-05-12T18:11:17.496Z,35.15
2023-05-12T18:13:44.923Z,33.80
2023-05-12T18:16:25.028Z,32.28
2023-05-12T18:21:23.484Z,30.55
2023-05-12T18:23:50.945Z,32.08
2023-05-12T18:26:18.449Z,35.85
2023-05-12T18:28:45.932Z,30.63
2023-05-12T18:31:16.295Z,34.15
2023-05-12T18:33:47.704Z,35.25
2023-05-12T18:36:16.758Z,34.53
2023-05-12T18:38:44.911Z,32.28
2023-05-12T18:41:12.669Z,34.35
2023-05-12T18:43:40.209Z,34.20
2023-05-12T18:46:07.873Z,34.28
2023-05-12T18:48:35.431Z,36.25
2023-05-12T18:51:03.177Z,39.40
2023-05-12T18:53:30.860Z,32.72
2023-05-12T18:55:58.473Z,30.83
2023-05-12T18:58:26.057Z,33.30
2023-05-12T19:00:54.247Z,36.25
2023-05-12T19:03:22.190Z,35.10
2023-05-12T19:05:49.838Z,33.70
2023-05-12T19:08:19.352Z,32.05
2023-05-12T19:10:48.279Z,32.47
2023-05-12T19:13:15.827Z,35.03
2023-05-12T19:15:43.321Z,34.83
2023-05-12T19:18:10.982Z,32.55
2023-05-12T19:20:38.633Z,35.70
2023-05-12T19:23:06.184Z,37.00
2023-05-12T19:25:33.824Z,29.42
2023-05-12T19:28:01.677Z,35.30
2023-05-12T19:30:29.652Z,37.33
2023-05-12T19:32:57.608Z,36.10
2023-05-12T19:35:25.906Z,35.22
2023-05-12T19:37:53.408Z,34.67
2023-05-12T19:40:21.079Z,36.40
2023-05-12T19:42:48.662Z,35.22
2023-05-12T19:45:16.320Z,36.47
2023-05-12T19:47:43.844Z,36.05
2023-05-12T19:50:11.668Z,37.10
2023-05-12T19:52:39.535Z,40.22
2023-05-12T19:55:10.151Z,38.45
2023-05-12T19:57:38.497Z,35.90
2023-05-12T20:00:06.689Z,32.75
2023-05-12T20:05:07.868Z,32.47
2023-05-12T20:07:35.381Z,35.00
2023-05-12T20:10:03.429Z,35.55
2023-05-12T20:12:31.890Z,36.60
2023-05-12T20:14:59.409Z,35.78
2023-05-12T20:17:27.051Z,34.55
2023-05-12T20:19:54.714Z,35.33
2023-05-12T20:22:22.587Z,33.53
2023-05-12T20:24:50.922Z,36.47
2023-05-12T20:27:18.370Z,35.28
2023-05-12T20:29:45.973Z,38.15
2023-05-12T20:32:14.464Z,33.92
2023-05-12T20:34:42.462Z,41.85
2023-05-12T20:37:10.370Z,40.63
2023-05-12T20:39:37.781Z,41.33
2023-05-12T20:42:06.396Z,38.03
2023-05-12T20:44:33.907Z,45.63
2023-05-12T20:47:02.000Z,44.85
2023-05-12T20:49:29.768Z,44.92
2023-05-12T20:51:57.204Z,45.83
2023-05-12T20:54:24.713Z,50.35
2023-05-12T20:56:52.272Z,50.92
2023-05-12T20:59:20.321Z,46.30
2023-05-12T21:01:48.009Z,47.83
2023-05-12T21:04:15.635Z,41.47
2023-05-12T21:06:43.298Z,48.22
2023-05-12T21:09:10.780Z,51.30
2023-05-12T21:11:38.338Z,48.80
2023-05-12T21:14:05.919Z,49.65
2023-05-12T21:16:33.683Z,52.70
2023-05-12T21:19:01.153Z,54.92
2023-05-12T21:21:28.984Z,50.50
2023-05-12T21:23:56.523Z,58.35
2023-05-12T21:26:24.185Z,57.72
2023-05-12T21:28:51.787Z,49.40
2023-05-12T21:31:19.280Z,54.15
2023-05-12T21:33:47.998Z,55.33
2023-05-12T21:36:16.323Z,56.22
2023-05-12T21:38:43.826Z,57.08
2023-05-12T21:41:11.425Z,56.40
2023-05-12T21:43:38.941Z,57.67
2023-05-12T21:46:06.539Z,57.60
2023-05-12T21:48:34.119Z,57.42
2023-05-12T21:51:03.327Z,62.28
2023-05-12T21:53:30.935Z,60.03
2023-05-12T21:55:58.516Z,60.20
2023-05-12T21:58:26.403Z,56.65
2023-05-12T22:00:54.229Z,65.65
2023-05-12T22:03:22.276Z,56.75
2023-05-12T22:05:50.251Z,60.83
2023-05-12T22:08:17.909Z,60.35
2023-05-12T22:10:45.480Z,60.88
2023-05-12T22:13:13.054Z,61.95
2023-05-12T22:15:40.868Z,57.10
2023-05-12T22:18:08.348Z,62.83
2023-05-12T22:20:35.996Z,60.80
2023-05-12T22:23:03.962Z,57.28
2023-05-12T22:25:31.580Z,56.20
2023-05-12T22:27:59.115Z,58.10
2023-05-12T22:30:26.709Z,57.65
2023-05-12T22:32:54.245Z,65.82
2023-05-12T22:35:21.834Z,63.05
2023-05-12T22:37:52.478Z,64.18
2023-05-12T22:40:23.381Z,63.28
2023-05-12T22:42:51.121Z,58.22
2023-05-12T22:45:18.850Z,62.00
2023-05-12T22:47:46.518Z,58.67
2023-05-12T22:50:14.007Z,54.13
2023-05-12T22:52:41.500Z,56.72
2023-05-12T22:55:09.767Z,56.28
2023-05-12T22:57:38.918Z,55.80
2023-05-12T23:00:08.452Z,56.15
2023-05-12T23:02:37.175Z,59.03
2023-05-12T23:05:05.041Z,57.95
2023-05-12T23:07:32.501Z,55.20
2023-05-12T23:10:00.028Z,57.88
2023-05-12T23:12:27.575Z,62.40
2023-05-12T23:14:55.137Z,60.15
2023-05-12T23:17:22.748Z,55.45
2023-05-12T23:19:52.477Z,60.25
2023-05-12T23:22:20.032Z,58.25
2023-05-12T23:24:47.693Z,64.97
2023-05-12T23:27:15.207Z,60.03
2023-05-12T23:29:42.697Z,58.92
2023-05-12T23:32:10.517Z,53.72
2023-05-12T23:34:40.570Z,59.53
2023-05-12T23:37:08.128Z,56.03
2023-05-12T23:39:36.036Z,65.32
2023-05-12T23:42:04.161Z,60.58
2023-05-12T23:44:31.721Z,64.18
2023-05-12T23:46:59.346Z,58.22
2023-05-12T23:49:27.638Z,63.50
2023-05-12T23:51:55.534Z,57.20
2023-05-12T23:54:23.126Z,59.38
2023-05-12T23:56:50.769Z,60.25
2023-05-12T23:59:18.352Z,59.40
